Iron Mountain, MI (49801)

8:55 PM CDT on August 20, 2014 (GMT -0500)
Ford | Change Station
CLOSE
Current Station
Airport
Location: Iron Mountain,
Elevation: 1181 ft
Nearby Weather Stations

Elev 1181 ft 45.82 °N, 88.11 °W | Updated 34 minutes ago

Overcast
Overcast
65 °F
Feels Like 65 °F
N
6
Wind Variable Wind from North

Today
High -- | Low -- °F
--% Chance of Precip.
Yesterday
High -- | Low -- °F
Precip. -- in
5:58 AM 7:51 PM
Waning Crescent, 17% visible
Pressure 29.93 in
Visibility 10.0 miles
Clouds Scattered Clouds 1100 ft
Mostly Cloudy 1700 ft
Overcast 2200 ft
Dew Point 61 °F
Humidity 87%
Rainfall 0.00 in
Snow Depth Not available.
UV 0 out of 12
Pollen 9.10 out of 12
Air Quality Not available.
Flu Activity Not available.
SPECI KIMT 210121Z AUTO 36005KT 10SM SCT011 BKN017 OVC022 18/16 A2993 RMK AO2 T01830161 TSNO

More Conditions Fewer Conditions

Pressure 29.93 in
Visibility 10.0 miles
Clouds Scattered Clouds 1100 ft
Mostly Cloudy 1700 ft
Overcast 2200 ft
Dew Point 61 °F
Humidity 87%
Rainfall 0.00 in
Snow Depth Not available.
UV 0 out of 12
Pollen 9.10 out of 12
Air Quality Not available.
Flu Activity Not available.
SPECI KIMT 210121Z AUTO 36005KT 10SM SCT011 BKN017 OVC022 18/16 A2993 RMK AO2 T01830161 TSNO

More Conditions Fewer Conditions

10-Day Weather Forecast

Almanac

Astronomy

Aug. 20, 2014 Rise Set
Actual Time 5:58 AM CDT 7:51 PM CDT
Civil Twilight 5:26 AM CDT 8:23 PM CDT
Nautical Twilight 4:47 AM CDT 9:02 PM CDT
Astronomical Twilight 4:04 AM CDT 9:45 PM CDT
Moon 1:32 AM CDT (8/20) 4:42 PM CDT (8/20)
Length of Visible Light 14h 57m
Length of Day
13h 53m
Tomorrow will be 2m 58s shorter.
Waning Crescent, 17% of the Moon is Illuminated
Today
Waning Crescent
Aug 25
New
Sep 2
First Quarter
Sep 8
Full
Sep 15
Last Quarter

Today's Extremes

State Highs State Lows

Community

WunderPhotos

Upload Photos

1,745,859 photos uploaded!

WunderBlogs® & News

Nearby

Snow Depth

Station Depth Elevation
No new snow has been reported.

Earthquake Activity

City Distance Mag. Time & Date
No recent earthquake activity has been reported nearby.
Minimum magnitude displayed is 2.5.

Coastal Water Temperatures

Place Temperature
No Stations Reporting

Nearby Weather Stations